KGVL/GVL METAR and TAF weather

Enter ICAO airport designator
Station Type Date Time Source
KGVL METAR 2022/06/28 14:53 UTC NOAA

KGVL 281453Z AUTO 08011G19KT 10SM CLR 25/14 A3023 RMK AO2 SLP221 T02500144 51015


Station Type Date Time Source
KGVL Decoded METAR 2022/06/28 14:53 UTC NOAA

GILMER MEMORIAL AIRPORT, GA, United States (KGVL) 34-16N 83-50W 386M
Jun 28, 2022 - 10:53 AM EDT / 2022.06.28 1453 UTC
Wind: from the E (080 degrees) at 13 MPH (11 KT) gusting to 22 MPH (19 KT):0
Visibility: 10 mile(s):0
Sky conditions: clear
Temperature: 77.0 F (25.0 C)
Dew Point: 57.9 F (14.4 C)
Relative Humidity: 51%
Pressure (altimeter): 30.23 in. Hg (1023 hPa)
Pressure tendency: 0.04 inches (1.5 hPa) higher than three hours ago
ob: KGVL 281453Z AUTO 08011G19KT 10SM CLR 25/14 A3023 RMK AO2 SLP221 T02500144 51015
cycle: 15

Station Type Date Time Source
KGVL TAF UTC NOAA

Error!

Example: see airport list